EDDMEDMO

Guest
Details From EDDM - Muenchen Franz-Josef Strauss
To EDMO - Oberpfaffenhofen
Flight Number -
Tags generated
Created
Modified
Stats Distance 31 nm / 57 km
Max Altitude 2,300 ft / 701 m
Waypoints 3
Social Downloads 2
Likes 0
Share VATSIM

Download

Looking for another format? Having issues loading an existing format? Contact us
Advertisement - Login to hide

Notes

Basic altitude profile: - Ascent Rate: 2500ft/min - Ascent Speed: 250kts - Cruise Altitude: 35000ft - Cruise Speed: 420kts - Descent Rate: 1500ft/min - Descent Speed: 250kts Options: - Use NATs: yes - Use PACOTS: yes - Use low airways: yes - Use high airways: yes

Route

EDDM MAH EDMO

ID Type Via Altitude Latitude Longitude Leg Dist Tot Dist Heading (true) Name
O EDDM APT - 0 ft / 0 m 48.35379˚ 11.78612˚ - 0 nm - Muenchen Franz-Josef Strauss
MAH VOR - 2,300 ft / 701 m 48.26343˚ 11.31193˚ 19 nm 19 nm 254° / 254° MAISACH VOR-DME
O EDMO APT - 0 ft / 0 m 48.08162˚ 11.28342˚ 10 nm 30 nm 186° / 186° Oberpfaffenhofen

Altitude Profile

Advertisement - Login to hide

EDDM

Details ICAO EDDM (MUC)
Name Muenchen Franz-Josef Strauss
Region Germany - Civil
Timezone Europe/Berlin (UTC+1.0)
Stats Elevation 1,487 ft / 453 m (AMSL)
Location 48.353786° 11.786117°
Runways 2
Magnetic Variation 3.162° E

METAR

EDDM 181120Z 14005KT 100V190 9999 SCT026 BKN033 00/M04 Q1022 R88/290095 NOSIG

Decode

TAF

TAF EDDM 180500Z 1806/1912 24005KT 9999 BKN040 BECMG 1808/1810 12005KT BECMG 1906/1909 25005KT

Decode

Departure Runways

ID Width Length Bearing (true) Bearing (mag) Surface Threshold Offset Overrun Length
08L 197 ft / 60 m 13,086 ft / 3,989 m 83.38° 80.22° Concrete 0 ft / 0 m 0 ft / 0 m
08R 197 ft / 60 m 13,086 ft / 3,989 m 83.37° 80.21° Concrete 0 ft / 0 m 0 ft / 0 m
26L 197 ft / 60 m 13,086 ft / 3,989 m 263.41° 260.25° Concrete 0 ft / 0 m 0 ft / 0 m
26R 197 ft / 60 m 13,086 ft / 3,989 m 263.42° 260.26° Concrete 0 ft / 0 m 0 ft / 0 m

EDMO

Details ICAO EDMO (OBF)
Name Oberpfaffenhofen
Region Germany - Civil
Timezone Europe/Berlin (UTC+1.0)
Stats Elevation 1,947 ft / 593 m (AMSL)
Location 48.081620° 11.283418°
Runways 1
Magnetic Variation 3.031° E

METAR

EDMO 181050Z 16006KT 9999 -SHSN BKN028 M01/M04 Q1021

Decode

TAF

Not found

Destination Runways

ID Width Length Bearing (true) Bearing (mag) Surface Threshold Offset Overrun Length
04 147 ft / 45 m 7,491 ft / 2,283 m 42.36° 39.33° Asphalt 0 ft / 0 m 231 ft / 70 m
22 147 ft / 45 m 7,491 ft / 2,283 m 222.38° 219.35° Asphalt 0 ft / 0 m 0 ft / 0 m

Approach Navaids

Runway Type Ident Frequency Range Bearing (true) Bearing (mag) Slope Elevation
22 Localiser OBI 110.50 MHz 18 nm / 33 km 222.35° 219.32° - 1,947 ft / 593 m (AMSL)
22 Glidescope OBI 110.50 MHz 10 nm / 19 km 222.37° 219.34° 3.00° 1,947 ft / 593 m (AMSL)